Time;durP1;ratioP1;P1;durP2;ratioP2;P2;SDS_P1;SDS_P2;PMS_P1;PMS_P2;Temp;Humidity;BMP_temperature;BMP_pressure;BME280_temperature;BME280_humidity;BME280_pressure;Samples;Min_cycle;Max_cycle;Signal;HPM_P1;HPM_P2
2024/02/23 00:00:45;;;;;;;0.30;0.30;;;;;;;6.74;100.00;96159.41;5015441;28;20205;-79
2024/02/23 00:03:12;;;;;;;0.90;0.50;;;;;;;6.75;100.00;96168.94;5015331;28;20324;-80
2024/02/23 00:05:38;;;;;;;0.50;0.30;;;;;;;6.71;100.00;96172.78;4997300;28;20205;-80
2024/02/23 00:08:05;;;;;;;1.40;0.33;;;;;;;6.72;100.00;96174.44;5015594;28;20223;-80
2024/02/23 00:10:33;;;;;;;0.20;0.20;;;;;;;6.73;100.00;96177.91;5015418;28;20237;-80
2024/02/23 00:13:00;;;;;;;0.40;0.40;;;;;;;6.67;100.00;96170.53;5015219;28;20697;-80
2024/02/23 00:15:27;;;;;;;1.83;0.70;;;;;;;6.62;100.00;96172.72;5015637;28;20530;-80
2024/02/23 00:17:53;;;;;;;0.60;0.50;;;;;;;6.60;100.00;96170.22;5015194;28;20703;-80
2024/02/23 00:20:20;;;;;;;1.33;0.27;;;;;;;6.62;100.00;96168.31;5014758;28;20209;-80
2024/02/23 00:22:46;;;;;;;0.60;0.40;;;;;;;6.52;100.00;96172.66;5015342;28;20257;-80
2024/02/23 00:25:14;;;;;;;0.87;0.30;;;;;;;6.50;100.00;96185.09;5014762;28;20214;-80
2024/02/23 00:27:42;;;;;;;0.33;0.30;;;;;;;6.46;100.00;96207.28;5015298;28;20237;-80
2024/02/23 00:30:09;;;;;;;1.13;0.30;;;;;;;6.45;100.00;96216.13;5015433;28;20296;-79
2024/02/23 00:32:35;;;;;;;1.17;0.50;;;;;;;6.46;100.00;96215.16;5014803;28;20248;-80
2024/02/23 00:35:02;;;;;;;0.63;0.40;;;;;;;6.46;100.00;96228.28;5015119;28;20245;-80
2024/02/23 00:37:29;;;;;;;0.57;0.40;;;;;;;6.48;100.00;96226.34;5015271;28;20209;-80
2024/02/23 00:39:55;;;;;;;0.63;0.27;;;;;;;6.46;100.00;96232.69;5014910;28;20748;-80
2024/02/23 00:42:22;;;;;;;0.60;0.30;;;;;;;6.38;100.00;96243.84;5015115;28;20229;-79
2024/02/23 00:44:49;;;;;;;0.47;0.47;;;;;;;6.41;100.00;96237.50;5015100;28;20219;-80
2024/02/23 00:47:16;;;;;;;1.20;0.50;;;;;;;6.39;100.00;96219.25;5013910;28;20217;-79
2024/02/23 00:49:43;;;;;;;0.50;0.50;;;;;;;6.43;100.00;96220.69;5014960;28;20326;-81
2024/02/23 00:52:10;;;;;;;2.20;0.43;;;;;;;6.44;100.00;96226.75;5014463;28;20240;-80
2024/02/23 00:54:36;;;;;;;2.57;0.50;;;;;;;6.42;100.00;96224.22;5014809;28;20230;-81
2024/02/23 00:57:03;;;;;;;1.10;0.40;;;;;;;6.41;100.00;96222.56;5014808;28;20234;-80
2024/02/23 00:59:29;;;;;;;0.60;0.60;;;;;;;6.42;100.00;96229.47;5014848;28;20201;-79
2024/02/23 01:01:57;;;;;;;2.30;0.50;;;;;;;6.46;100.00;96232.69;5014725;28;20236;-79
2024/02/23 01:04:24;;;;;;;0.57;0.40;;;;;;;6.46;100.00;96251.03;5014995;28;20213;-79
2024/02/23 01:06:50;;;;;;;0.77;0.47;;;;;;;6.42;100.00;96260.97;5014803;28;20209;-79
2024/02/23 01:09:20;;;;;;;2.60;0.60;;;;;;;6.44;100.00;96251.19;5014428;28;20585;-80
2024/02/23 01:11:46;;;;;;;1.70;0.60;;;;;;;6.45;100.00;96239.75;5014894;28;20316;-79
2024/02/23 01:14:13;;;;;;;1.13;0.50;;;;;;;6.48;100.00;96249.97;5016310;28;20209;-80
2024/02/23 01:16:39;;;;;;;0.63;0.50;;;;;;;6.51;100.00;96254.13;5018682;28;20653;-79
2024/02/23 01:19:07;;;;;;;2.63;0.60;;;;;;;6.50;100.00;96253.31;5021906;28;20205;-79
2024/02/23 01:21:34;;;;;;;1.83;0.70;;;;;;;6.55;100.00;96251.16;5022156;28;20252;-80
2024/02/23 01:24:00;;;;;;;2.77;0.83;;;;;;;6.56;100.00;96226.56;5023149;28;20213;-80
2024/02/23 01:26:27;;;;;;;0.40;0.40;;;;;;;6.61;100.00;96221.78;5023089;28;20223;-80
2024/02/23 01:28:54;;;;;;;2.63;0.50;;;;;;;6.53;100.00;96232.06;5022697;28;20327;-79
2024/02/23 01:31:20;;;;;;;0.73;0.70;;;;;;;6.51;100.00;96239.22;5019698;28;20233;-79
2024/02/23 01:33:47;;;;;;;1.17;0.30;;;;;;;6.44;100.00;96245.94;5014395;28;20209;-79
2024/02/23 01:36:15;;;;;;;0.37;0.37;;;;;;;6.40;100.00;96255.03;5013713;28;20217;-79
2024/02/23 01:38:42;;;;;;;2.87;0.60;;;;;;;6.33;100.00;96261.72;5013900;28;20205;-79
2024/02/23 01:41:11;;;;;;;1.33;0.60;;;;;;;6.29;100.00;96270.81;5013925;28;20324;-79
2024/02/23 01:43:37;;;;;;;1.13;0.50;;;;;;;6.23;100.00;96279.16;5014505;28;20214;-79
2024/02/23 01:46:05;;;;;;;2.20;0.50;;;;;;;6.26;100.00;96289.44;5013930;28;20220;-79
2024/02/23 01:48:33;;;;;;;1.03;0.50;;;;;;;6.31;100.00;96289.91;5013437;28;20216;-79
2024/02/23 01:50:59;;;;;;;0.50;0.40;;;;;;;6.34;100.00;96283.56;5013232;28;20320;-79
2024/02/23 01:53:28;;;;;;;2.20;0.50;;;;;;;6.39;100.00;96287.47;5021057;28;20285;-80
2024/02/23 01:55:55;;;;;;;0.50;0.50;;;;;;;6.46;100.00;96279.91;5020717;28;20223;-80
2024/02/23 01:58:22;;;;;;;0.30;0.30;;;;;;;6.50;100.00;96279.56;5019365;28;20205;-80
2024/02/23 02:00:49;;;;;;;0.40;0.37;;;;;;;6.56;100.00;96272.97;5018609;28;20213;-80
2024/02/23 02:03:15;;;;;;;1.07;0.40;;;;;;;6.59;100.00;96273.53;5018820;28;20229;-80
2024/02/23 02:05:42;;;;;;;1.03;0.40;;;;;;;6.61;100.00;96281.28;5019472;28;20246;-79
2024/02/23 02:08:08;;;;;;;0.47;0.40;;;;;;;6.64;100.00;96281.03;5019097;28;20206;-80
2024/02/23 02:10:36;;;;;;;1.43;0.60;;;;;;;6.64;100.00;96295.00;5018730;28;20239;-80
2024/02/23 02:13:04;;;;;;;0.80;0.50;;;;;;;6.64;100.00;96300.25;5018869;28;20239;-80
2024/02/23 02:15:30;;;;;;;0.70;0.40;;;;;;;6.60;100.00;96290.94;5019371;28;20244;-80
2024/02/23 02:17:57;;;;;;;0.83;0.50;;;;;;;6.59;100.00;96291.09;5018831;28;20216;-80
2024/02/23 02:20:25;;;;;;;0.43;0.43;;;;;;;6.56;100.00;96310.53;5018844;28;20222;-80
2024/02/23 02:22:52;;;;;;;0.87;0.43;;;;;;;6.49;100.00;96313.78;5018575;28;20229;-80
2024/02/23 02:25:18;;;;;;;2.33;0.57;;;;;;;6.49;100.00;96322.50;5018213;28;20220;-80
2024/02/23 02:27:46;;;;;;;2.43;0.60;;;;;;;6.51;100.00;96331.06;5013300;28;20219;-80
2024/02/23 02:30:13;;;;;;;3.20;0.60;;;;;;;6.50;100.00;96337.28;5012742;28;20257;-80
2024/02/23 02:32:40;;;;;;;1.23;0.50;;;;;;;6.45;100.00;96328.94;5012200;28;20239;-79
2024/02/23 02:35:07;;;;;;;0.77;0.43;;;;;;;6.43;100.00;96336.13;5012813;28;20224;-80
2024/02/23 02:37:33;;;;;;;0.67;0.50;;;;;;;6.38;100.00;96322.53;5014810;28;20766;-80
2024/02/23 02:40:00;;;;;;;1.37;0.50;;;;;;;6.35;100.00;96316.72;5018878;28;20219;-80
2024/02/23 02:42:28;;;;;;;0.57;0.43;;;;;;;6.32;100.00;96317.78;5018461;28;20226;-80
2024/02/23 02:44:56;;;;;;;0.73;0.70;;;;;;;6.32;100.00;96317.78;5016066;28;20217;-80
2024/02/23 02:47:24;;;;;;;1.13;0.33;;;;;;;6.31;100.00;96316.13;5017877;28;20209;-80
2024/02/23 02:49:51;;;;;;;1.50;0.57;;;;;;;6.30;100.00;96309.19;5015111;28;20210;-80
2024/02/23 02:52:17;;;;;;;0.80;0.50;;;;;;;6.35;100.00;96314.09;5013028;28;20236;-79
2024/02/23 02:54:44;;;;;;;2.23;0.47;;;;;;;6.29;100.00;96312.78;5013133;28;20216;-80
2024/02/23 02:57:10;;;;;;;0.73;0.60;;;;;;;6.33;100.00;96311.56;5013226;28;20214;-80
2024/02/23 02:59:37;;;;;;;1.43;0.60;;;;;;;6.25;100.00;96306.13;5012779;28;20206;-80
2024/02/23 03:02:05;;;;;;;1.07;0.50;;;;;;;6.16;100.00;96312.09;5012865;28;20232;-79
2024/02/23 03:04:31;;;;;;;2.23;0.60;;;;;;;6.14;100.00;96319.28;5012766;28;20216;-80
2024/02/23 03:06:58;;;;;;;3.10;0.87;;;;;;;6.08;100.00;96337.25;5012888;28;20210;-80
2024/02/23 03:09:24;;;;;;;1.17;0.63;;;;;;;6.01;100.00;96334.31;5012986;28;20236;-80
2024/02/23 03:11:51;;;;;;;1.93;0.77;;;;;;;5.97;100.00;96343.38;5015192;28;20237;-80
2024/02/23 03:14:20;;;;;;;2.10;0.60;;;;;;;5.93;100.00;96313.09;5016586;28;20213;-80
2024/02/23 03:16:47;;;;;;;1.30;0.60;;;;;;;5.85;100.00;96317.28;5017265;28;20291;-79
2024/02/23 03:19:15;;;;;;;2.97;0.80;;;;;;;5.79;100.00;96323.81;5016666;28;20217;-80
2024/02/23 03:21:42;;;;;;;1.43;0.60;;;;;;;5.77;100.00;96330.97;5016328;28;20593;-80
2024/02/23 03:24:08;;;;;;;1.60;0.53;;;;;;;5.80;100.00;96324.69;5015988;28;20282;-80
2024/02/23 03:26:35;;;;;;;1.37;0.40;;;;;;;5.86;100.00;96308.50;5015979;28;20205;-80
2024/02/23 03:29:01;;;;;;;1.00;0.57;;;;;;;5.92;100.00;96311.44;5015651;28;20230;-80
2024/02/23 03:31:28;;;;;;;0.57;0.50;;;;;;;5.95;100.00;96319.06;5015218;28;20245;-80
2024/02/23 03:33:54;;;;;;;2.60;0.70;;;;;;;5.97;100.00;96327.63;5015491;28;20214;-80
2024/02/23 03:36:22;;;;;;;0.50;0.50;;;;;;;5.99;100.00;96320.47;5015688;28;20652;-80
2024/02/23 03:38:48;;;;;;;2.60;0.57;;;;;;;5.95;100.00;96287.63;5015523;28;20220;-80
2024/02/23 03:41:15;;;;;;;0.50;0.40;;;;;;;5.98;100.00;96281.28;5015052;28;20209;-80
2024/02/23 03:43:41;;;;;;;1.03;0.53;;;;;;;5.97;100.00;96285.69;5014968;28;20214;-80
2024/02/23 03:46:08;;;;;;;0.77;0.50;;;;;;;5.97;100.00;96295.34;5015044;28;20570;-80
2024/02/23 03:48:35;;;;;;;2.53;0.60;;;;;;;5.95;100.00;96305.97;5015133;28;20236;-80
2024/02/23 03:51:04;;;;;;;1.23;0.53;;;;;;;5.92;100.00;96293.09;5015048;28;20299;-79
2024/02/23 03:53:32;;;;;;;1.33;0.40;;;;;;;5.91;100.00;96299.28;5015353;28;20616;-80
2024/02/23 03:55:58;;;;;;;0.90;0.50;;;;;;;5.89;100.00;96292.50;5015175;28;20614;-80
2024/02/23 03:58:25;;;;;;;0.60;0.60;;;;;;;5.85;100.00;96312.88;4997743;28;20211;-79
2024/02/23 04:00:53;;;;;;;2.70;0.83;;;;;;;5.86;99.38;96300.63;5015547;28;20202;-79
2024/02/23 04:03:19;;;;;;;0.60;0.53;;;;;;;5.81;98.56;96300.97;5014854;28;20237;-79
2024/02/23 04:05:46;;;;;;;3.10;0.73;;;;;;;5.78;98.97;96295.09;5015531;28;20577;-79
2024/02/23 04:08:13;;;;;;;0.60;0.53;;;;;;;5.77;97.69;96278.56;5015009;28;20284;-80
2024/02/23 04:10:42;;;;;;;1.10;0.60;;;;;;;5.80;97.43;96282.75;5014582;28;20704;-80
2024/02/23 04:13:10;;;;;;;0.90;0.90;;;;;;;5.78;95.76;96266.28;5014901;28;20233;-80
2024/02/23 04:15:36;;;;;;;0.70;0.43;;;;;;;5.72;97.26;96285.94;5014848;28;20268;-79
2024/02/23 04:18:03;;;;;;;0.70;0.70;;;;;;;5.74;93.44;96272.72;5015446;28;20216;-79
2024/02/23 04:20:30;;;;;;;0.73;0.47;;;;;;;5.70;94.72;96277.38;5015282;28;20217;-79
2024/02/23 04:22:56;;;;;;;0.60;0.50;;;;;;;5.69;93.66;96280.94;5013879;28;20320;-80
2024/02/23 04:25:22;;;;;;;1.20;0.57;;;;;;;5.65;95.56;96292.63;5014977;28;20209;-81
2024/02/23 04:27:50;;;;;;;1.20;0.50;;;;;;;5.61;94.06;96285.94;5014806;28;20210;-79
2024/02/23 04:30:17;;;;;;;0.77;0.40;;;;;;;5.59;93.07;96266.91;5015630;28;20213;-79
2024/02/23 04:32:44;;;;;;;0.67;0.50;;;;;;;5.60;92.61;96271.19;5017237;28;20755;-79
2024/02/23 04:35:10;;;;;;;1.70;0.60;;;;;;;5.56;93.04;96268.94;5017388;28;20541;-80
2024/02/23 04:37:37;;;;;;;0.90;0.50;;;;;;;5.52;90.52;96257.88;5017243;28;20213;-80
2024/02/23 04:40:05;;;;;;;0.50;0.50;;;;;;;5.50;92.05;96256.31;5015973;28;20206;-80
2024/02/23 04:42:32;;;;;;;3.00;0.50;;;;;;;5.55;89.83;96252.38;5014304;28;20636;-79
2024/02/23 04:45:00;;;;;;;0.57;0.57;;;;;;;5.52;88.80;96250.00;5014412;28;20212;-79
2024/02/23 04:47:26;;;;;;;1.30;0.43;;;;;;;5.46;89.61;96266.22;5013981;28;20212;-79
2024/02/23 04:49:53;;;;;;;0.50;0.40;;;;;;;5.45;88.81;96248.81;5014098;28;20672;-80
2024/02/23 04:52:20;;;;;;;1.77;0.50;;;;;;;5.38;90.61;96260.72;5014220;28;20237;-79
2024/02/23 04:54:46;;;;;;;1.10;0.70;;;;;;;5.41;91.47;96278.84;5013975;28;20212;-79
2024/02/23 04:57:13;;;;;;;1.40;0.77;;;;;;;5.30;95.08;96294.53;5014160;28;20217;-79
2024/02/23 04:59:39;;;;;;;0.53;0.53;;;;;;;5.27;95.20;96289.56;5014070;28;20224;-79
2024/02/23 05:02:07;;;;;;;1.90;0.50;;;;;;;5.19;96.64;96289.28;5013996;28;20719;-79
2024/02/23 05:04:34;;;;;;;2.03;0.77;;;;;;;5.20;98.00;96293.56;5013913;28;20221;-78
2024/02/23 05:07:01;;;;;;;0.40;0.40;;;;;;;5.12;98.01;96285.47;5014003;28;20678;-80
2024/02/23 05:09:27;;;;;;;1.63;0.47;;;;;;;5.05;97.89;96279.06;5013937;28;20531;-79
2024/02/23 05:11:54;;;;;;;1.87;0.80;;;;;;;4.99;99.40;96297.00;5014521;28;20251;-79
2024/02/23 05:14:21;;;;;;;1.23;0.60;;;;;;;4.96;99.62;96284.97;5015201;28;20252;-80
2024/02/23 05:16:48;;;;;;;1.37;0.80;;;;;;;4.97;99.45;96286.66;5014181;28;20216;-80
2024/02/23 05:19:15;;;;;;;0.57;0.47;;;;;;;4.94;96.84;96273.81;5014118;28;20205;-80
2024/02/23 05:21:42;;;;;;;1.50;0.60;;;;;;;4.94;96.60;96276.41;5015710;28;20325;-80
2024/02/23 05:24:12;;;;;;;0.60;0.60;;;;;;;4.86;97.22;96275.34;5017543;28;20589;-80
2024/02/23 05:26:39;;;;;;;1.93;0.60;;;;;;;4.81;97.56;96283.53;5017117;28;20213;-80
2024/02/23 05:29:06;;;;;;;0.60;0.50;;;;;;;4.82;99.48;96293.06;5017408;28;20688;-80
2024/02/23 05:31:46;;;;;;;1.10;0.60;;;;;;;4.80;99.23;96294.97;5018771;28;20239;-80
2024/02/23 05:34:12;;;;;;;1.10;0.53;;;;;;;4.76;98.44;96309.22;5015120;28;20223;-80
2024/02/23 05:36:40;;;;;;;0.60;0.60;;;;;;;4.79;98.68;96302.91;5013956;28;20211;-80
2024/02/23 05:39:09;;;;;;;1.03;0.50;;;;;;;4.79;98.54;96306.38;5020402;28;20215;-83
2024/02/23 05:41:36;;;;;;;1.67;0.50;;;;;;;4.73;98.17;96304.22;5016860;28;20241;-80
2024/02/23 05:44:03;;;;;;;0.87;0.70;;;;;;;4.71;99.29;96316.56;5015145;28;20699;-80
2024/02/23 05:46:29;;;;;;;0.50;0.50;;;;;;;4.73;100.00;96325.16;5018929;28;20228;-80
2024/02/23 05:48:55;;;;;;;0.93;0.70;;;;;;;4.68;100.00;96337.75;5014183;28;20220;-80
2024/02/23 05:51:22;;;;;;;1.70;0.63;;;;;;;4.64;100.00;96325.81;5012929;28;20241;-80
2024/02/23 05:53:50;;;;;;;0.93;0.60;;;;;;;4.59;100.00;96332.34;5013777;28;20209;-80
2024/02/23 05:56:16;;;;;;;1.40;0.73;;;;;;;4.62;100.00;96332.97;5013611;28;20220;-80
2024/02/23 05:58:43;;;;;;;1.90;0.60;;;;;;;4.56;100.00;96336.03;5016300;28;20275;-81
2024/02/23 06:01:09;;;;;;;1.23;0.80;;;;;;;4.57;100.00;96342.06;5014571;28;20220;-80
2024/02/23 06:03:36;;;;;;;0.77;0.60;;;;;;;4.50;100.00;96344.31;5013348;28;20221;-79
2024/02/23 06:06:02;;;;;;;1.50;0.70;;;;;;;4.44;100.00;96341.31;5013179;28;20216;-79
2024/02/23 06:08:29;;;;;;;0.53;0.53;;;;;;;4.32;100.00;96345.66;5013388;28;20212;-80
2024/02/23 06:10:59;;;;;;;1.13;0.60;;;;;;;4.28;100.00;96348.63;5012726;28;20686;-80
2024/02/23 06:13:25;;;;;;;1.00;0.60;;;;;;;4.26;100.00;96348.72;5013237;28;20224;-79
2024/02/23 06:15:52;;;;;;;2.50;0.60;;;;;;;4.23;100.00;96354.16;5013566;28;20291;-79
2024/02/23 06:18:18;;;;;;;1.30;0.60;;;;;;;4.25;100.00;96365.38;5013591;28;20223;-79
2024/02/23 06:20:45;;;;;;;1.87;0.50;;;;;;;4.25;100.00;96383.66;5014780;28;20291;-79
2024/02/23 06:23:11;;;;;;;1.00;0.53;;;;;;;4.30;100.00;96378.94;5013928;28;20230;-79
2024/02/23 06:25:38;;;;;;;1.57;0.70;;;;;;;4.31;100.00;96370.16;5013299;28;20212;-79
2024/02/23 06:28:07;;;;;;;0.93;0.70;;;;;;;4.35;100.00;96376.81;5012896;28;20230;-80
2024/02/23 06:30:33;;;;;;;5.23;0.70;;;;;;;4.40;100.00;96364.25;5013949;28;20274;-79
2024/02/23 06:33:00;;;;;;;0.50;0.50;;;;;;;4.34;100.00;96375.16;5013091;28;20476;-79
2024/02/23 06:35:26;;;;;;;1.23;0.70;;;;;;;4.27;100.00;96373.94;5012598;28;20685;-79
2024/02/23 06:37:53;;;;;;;1.03;0.70;;;;;;;4.22;100.00;96381.25;5013103;28;20223;-80
2024/02/23 06:40:19;;;;;;;2.63;0.87;;;;;;;4.23;100.00;96388.16;5012947;28;20244;-80
2024/02/23 06:42:46;;;;;;;3.90;0.90;;;;;;;4.23;100.00;96382.09;5012890;28;20304;-80
2024/02/23 06:45:14;;;;;;;2.43;0.70;;;;;;;4.24;100.00;96384.63;5012858;28;20211;-80
2024/02/23 06:47:40;;;;;;;0.90;0.53;;;;;;;4.21;100.00;96384.81;5018016;28;20234;-80
2024/02/23 06:50:08;;;;;;;1.90;0.50;;;;;;;4.17;100.00;96382.53;5024571;28;20667;-81
2024/02/23 06:52:38;;;;;;;5.23;1.20;;;;;;;4.22;100.00;96391.72;5024822;28;20699;-80
2024/02/23 06:55:05;;;;;;;1.40;0.70;;;;;;;4.30;100.00;96389.41;5024492;28;20219;-80
2024/02/23 06:57:32;;;;;;;1.77;0.70;;;;;;;4.39;100.00;96387.91;5025044;28;20217;-80
2024/02/23 06:59:58;;;;;;;1.30;0.60;;;;;;;4.46;100.00;96384.72;5024942;28;20210;-80
2024/02/23 07:02:26;;;;;;;0.70;0.70;;;;;;;4.54;100.00;96390.25;5024774;28;20235;-80
2024/02/23 07:04:54;;;;;;;1.20;0.70;;;;;;;4.57;100.00;96395.25;5024037;28;20579;-80
2024/02/23 07:07:21;;;;;;;1.97;0.70;;;;;;;4.58;100.00;96389.06;5024474;28;20233;-82
2024/02/23 07:09:47;;;;;;;2.70;0.80;;;;;;;4.62;100.00;96390.53;5025944;28;20208;-81
2024/02/23 07:12:14;;;;;;;2.67;0.80;;;;;;;4.64;100.00;96396.47;5021412;28;20238;-77
2024/02/23 07:14:40;;;;;;;1.20;1.00;;;;;;;4.69;100.00;96401.34;5017471;28;20217;-78
2024/02/23 07:17:09;;;;;;;2.15;0.88;;;;;;;4.78;100.00;96398.91;5010695;28;20454;-77
2024/02/23 07:19:37;;;;;;;0.63;0.60;;;;;;;4.75;100.00;96399.13;5012920;28;20275;-77
2024/02/23 07:22:04;;;;;;;3.53;0.70;;;;;;;4.84;100.00;96405.47;5014242;28;20236;-77
2024/02/23 07:24:32;;;;;;;1.30;0.70;;;;;;;4.88;100.00;96401.69;5013829;28;20204;-77
2024/02/23 07:26:58;;;;;;;3.13;0.90;;;;;;;4.85;100.00;96400.13;5013455;28;20262;-77
2024/02/23 07:29:25;;;;;;;0.60;0.60;;;;;;;4.85;100.00;96402.75;5014320;28;20224;-78
2024/02/23 07:31:51;;;;;;;1.37;0.60;;;;;;;4.85;100.00;96413.22;5013480;28;20232;-77
2024/02/23 07:34:18;;;;;;;2.07;0.80;;;;;;;4.89;100.00;96408.59;5013322;28;20667;-77
2024/02/23 07:36:46;;;;;;;0.93;0.60;;;;;;;4.84;100.00;96406.28;5014764;28;20212;-78
2024/02/23 07:39:12;;;;;;;0.93;0.67;;;;;;;4.88;100.00;96410.34;5013540;28;20220;-76
2024/02/23 07:41:39;;;;;;;1.63;0.60;;;;;;;4.90;100.00;96403.22;5013976;28;20232;-77
2024/02/23 07:44:05;;;;;;;0.77;0.77;;;;;;;4.94;100.00;96396.00;5015117;28;20212;-78
2024/02/23 07:46:32;;;;;;;1.10;0.57;;;;;;;4.99;100.00;96405.16;5014082;28;20225;-77
2024/02/23 07:48:58;;;;;;;0.87;0.70;;;;;;;5.05;100.00;96399.47;5013407;28;20211;-77
2024/02/23 07:51:25;;;;;;;1.23;0.57;;;;;;;5.17;100.00;96398.56;5014360;28;20280;-77
2024/02/23 07:53:52;;;;;;;0.60;0.60;;;;;;;5.20;100.00;96392.25;5013994;28;20216;-77
2024/02/23 07:56:19;;;;;;;0.70;0.70;;;;;;;5.19;100.00;96401.06;5013733;28;20680;-77
2024/02/23 07:58:45;;;;;;;0.73;0.70;;;;;;;5.17;100.00;96403.78;5011934;28;20221;-77
2024/02/23 08:01:12;;;;;;;1.47;0.90;;;;;;;5.14;100.00;96409.25;5013791;28;20213;-77
2024/02/23 08:03:38;;;;;;;0.70;0.67;;;;;;;5.16;100.00;96406.53;5013681;28;20212;-77
2024/02/23 08:06:05;;;;;;;0.67;0.60;;;;;;;5.11;100.00;96414.72;5013614;28;20219;-77
2024/02/23 08:08:34;;;;;;;1.23;0.80;;;;;;;5.07;100.00;96415.91;5013558;28;20688;-77
2024/02/23 08:11:03;;;;;;;0.90;0.60;;;;;;;5.17;100.00;96422.13;4993922;28;20205;-77
2024/02/23 08:13:29;;;;;;;1.13;0.70;;;;;;;5.17;100.00;96409.03;5009156;28;20229;-80
2024/02/23 08:15:56;;;;;;;1.13;0.90;;;;;;;5.27;100.00;96404.78;5007694;28;20545;-81
2024/02/23 08:18:23;;;;;;;2.63;0.93;;;;;;;5.25;100.00;96396.19;5017176;28;20210;-81
2024/02/23 08:20:49;;;;;;;1.80;0.77;;;;;;;5.27;100.00;96393.47;5011864;28;20263;-81
2024/02/23 08:23:16;;;;;;;2.03;0.90;;;;;;;5.25;100.00;96396.19;5009118;28;20248;-81
2024/02/23 08:25:42;;;;;;;0.70;0.70;;;;;;;5.23;100.00;96392.84;5022566;28;20214;-81
2024/02/23 08:28:10;;;;;;;1.53;0.73;;;;;;;5.23;100.00;96398.09;5024497;28;20224;-81
2024/02/23 08:30:37;;;;;;;1.67;0.70;;;;;;;5.26;100.00;96392.63;5022708;28;20208;-82
2024/02/23 08:33:04;;;;;;;2.57;0.80;;;;;;;5.27;100.00;96394.31;5018562;28;20220;-81
2024/02/23 08:35:30;;;;;;;0.83;0.60;;;;;;;5.27;100.00;96399.53;4999334;28;20217;-81
2024/02/23 08:37:57;;;;;;;0.83;0.70;;;;;;;5.30;100.00;96393.22;4991007;28;20217;-81
2024/02/23 08:40:23;;;;;;;0.70;0.70;;;;;;;5.29;100.00;96392.41;5003484;28;20677;-81
2024/02/23 08:42:51;;;;;;;0.80;0.80;;;;;;;5.30;100.00;96394.06;5003900;28;20819;-81
2024/02/23 08:45:19;;;;;;;4.63;1.00;;;;;;;5.28;100.00;96395.97;5001774;28;20339;-81
2024/02/23 08:47:47;;;;;;;3.40;1.10;;;;;;;5.32;100.00;96396.56;5012741;28;20209;-81
2024/02/23 08:50:14;;;;;;;2.53;1.00;;;;;;;5.26;100.00;96390.00;5025869;28;20307;-80
2024/02/23 08:52:41;;;;;;;2.67;1.00;;;;;;;5.32;100.00;96394.75;5026673;28;20265;-81
2024/02/23 08:55:08;;;;;;;1.53;0.77;;;;;;;5.43;100.00;96404.47;5023893;28;20280;-80
2024/02/23 08:57:35;;;;;;;3.10;1.30;;;;;;;5.45;100.00;96402.53;5024309;28;20575;-81
2024/02/23 09:00:01;;;;;;;3.00;1.07;;;;;;;5.50;100.00;96393.38;5023489;28;20205;-81
2024/02/23 09:02:29;;;;;;;1.00;0.90;;;;;;;5.68;100.00;96394.56;5024858;28;20450;-81
2024/02/23 09:04:56;;;;;;;1.17;0.90;;;;;;;5.76;100.00;96397.47;5024104;28;20216;-81
2024/02/23 09:07:23;;;;;;;0.80;0.60;;;;;;;5.82;100.00;96383.91;5023802;28;20235;-81
2024/02/23 09:09:49;;;;;;;1.13;0.60;;;;;;;5.87;100.00;96379.13;5024433;28;20276;-82
2024/02/23 09:12:16;;;;;;;2.57;0.70;;;;;;;6.00;100.00;96385.09;5023682;28;20240;-81
2024/02/23 09:14:43;;;;;;;1.30;0.93;;;;;;;6.01;100.00;96384.13;5024003;28;20276;-81
2024/02/23 09:17:11;;;;;;;2.10;0.87;;;;;;;6.08;99.25;96380.06;5023414;28;20220;-81
2024/02/23 09:19:39;;;;;;;1.80;0.60;;;;;;;6.12;99.38;96381.47;5022029;28;20213;-79
2024/02/23 09:22:05;;;;;;;2.57;0.87;;;;;;;6.16;96.67;96375.03;5013024;28;20236;-77
2024/02/23 09:24:32;;;;;;;2.00;0.70;;;;;;;6.16;96.27;96371.59;5013042;28;20243;-77
2024/02/23 09:26:58;;;;;;;1.77;0.77;;;;;;;6.15;96.04;96373.38;5012767;28;20216;-77
2024/02/23 09:29:25;;;;;;;1.57;0.67;;;;;;;6.18;92.70;96357.38;5012502;28;20597;-77
2024/02/23 09:31:52;;;;;;;2.23;0.83;;;;;;;6.14;92.80;96357.75;5012098;28;20732;-78
2024/02/23 09:34:19;;;;;;;2.23;0.70;;;;;;;6.23;91.00;96346.56;5012386;28;20209;-77
2024/02/23 09:36:48;;;;;;;1.50;0.60;;;;;;;6.26;91.14;96339.25;5014347;28;20209;-77
2024/02/23 09:39:14;;;;;;;2.60;0.80;;;;;;;6.30;89.86;96339.84;5013648;28;20213;-77
2024/02/23 09:41:42;;;;;;;2.00;0.80;;;;;;;6.29;87.80;96339.00;5013279;28;20609;-77
2024/02/23 09:44:09;;;;;;;1.67;0.80;;;;;;;6.28;87.61;96336.53;5005896;28;20447;-77
2024/02/23 09:46:37;;;;;;;0.83;0.60;;;;;;;6.34;85.42;96326.34;5012453;28;20213;-78
2024/02/23 09:49:06;;;;;;;2.00;0.80;;;;;;;6.34;86.28;96339.47;5012993;28;20217;-77
2024/02/23 09:51:34;;;;;;;2.77;0.97;;;;;;;6.41;87.11;96348.50;5012794;28;20324;-77
2024/02/23 09:54:03;;;;;;;1.97;0.80;;;;;;;6.39;86.72;96339.94;5013000;28;20225;-79
2024/02/23 09:56:30;;;;;;;3.47;0.70;;;;;;;6.38;84.56;96332.19;5012251;28;20212;-78
2024/02/23 09:58:58;;;;;;;1.33;0.70;;;;;;;6.34;85.36;96336.84;5012643;28;20209;-80
2024/02/23 10:01:29;;;;;;;1.30;0.60;;;;;;;6.37;86.68;96349.72;4997672;28;20307;-78
2024/02/23 10:04:00;;;;;;;1.07;0.80;;;;;;;6.53;86.21;96342.28;5004649;28;20220;-77
2024/02/23 10:06:27;;;;;;;3.13;0.80;;;;;;;6.77;84.14;96328.94;5001560;28;20618;-78
2024/02/23 10:08:54;;;;;;;2.83;0.70;;;;;;;7.01;82.92;96330.34;4999897;28;20736;-77
2024/02/23 10:11:23;;;;;;;1.90;0.63;;;;;;;7.27;81.69;96322.91;4997600;28;20281;-77
2024/02/23 10:13:51;;;;;;;2.83;0.73;;;;;;;7.52;79.25;96313.66;4994707;28;20257;-77
2024/02/23 10:16:20;;;;;;;2.70;0.80;;;;;;;7.57;76.21;96310.63;5008878;28;20221;-78
2024/02/23 10:18:46;;;;;;;2.70;0.90;;;;;;;7.61;76.69;96307.63;5008871;28;20230;-78
2024/02/23 10:21:13;;;;;;;0.63;0.50;;;;;;;7.66;75.88;96325.59;5007011;28;20216;-78
2024/02/23 10:23:40;;;;;;;1.17;0.70;;;;;;;7.73;77.20;96342.53;5008252;28;20297;-78
2024/02/23 10:26:07;;;;;;;2.13;0.60;;;;;;;7.75;74.11;96324.81;5008322;28;20281;-78
2024/02/23 10:28:35;;;;;;;2.73;0.70;;;;;;;7.74;74.72;96331.03;5007569;28;20245;-78
2024/02/23 10:31:03;;;;;;;1.53;0.63;;;;;;;7.80;75.90;96338.38;5008291;28;20214;-78
2024/02/23 10:33:30;;;;;;;2.00;0.60;;;;;;;7.94;76.59;96341.50;5007875;28;20249;-78
2024/02/23 10:35:58;;;;;;;1.20;0.63;;;;;;;8.05;75.85;96332.66;5008021;28;20209;-78
2024/02/23 10:38:27;;;;;;;1.97;0.87;;;;;;;8.09;74.44;96328.81;5007158;28;20263;-78
2024/02/23 10:40:56;;;;;;;2.23;1.10;;;;;;;8.08;74.86;96327.16;5007965;28;20216;-78
2024/02/23 10:43:29;;;;;;;2.00;0.70;;;;;;;7.93;74.74;96323.22;5007232;28;20703;-78
2024/02/23 10:45:59;;;;;;;3.33;0.70;;;;;;;7.94;75.08;96324.88;5008563;28;20241;-78
2024/02/23 10:48:28;;;;;;;1.70;0.70;;;;;;;7.83;74.73;96322.38;5006615;28;20356;-78
2024/02/23 10:50:56;;;;;;;2.80;0.70;;;;;;;7.73;74.29;96318.84;5005817;28;20217;-78
2024/02/23 10:53:23;;;;;;;2.63;0.57;;;;;;;7.69;76.08;96330.59;5006014;28;20716;-78
2024/02/23 10:56:01;;;;;;;2.10;0.73;;;;;;;7.68;76.15;96334.19;5007180;28;20210;-78
2024/02/23 10:58:27;;;;;;;2.17;0.83;;;;;;;7.80;75.61;96318.19;5007122;28;20630;-78
2024/02/23 11:01:00;;;;;;;1.83;0.53;;;;;;;7.85;74.51;96312.53;5009205;28;20206;-78
2024/02/23 11:03:29;;;;;;;3.77;0.70;;;;;;;7.86;75.08;96322.09;5010973;28;20600;-78
2024/02/23 11:05:56;;;;;;;2.80;0.80;;;;;;;7.86;75.86;96329.97;5009278;28;20206;-78
2024/02/23 11:08:22;;;;;;;1.47;0.60;;;;;;;7.87;74.22;96314.06;5009797;28;20231;-78
2024/02/23 11:10:52;;;;;;;2.80;0.67;;;;;;;7.96;74.28;96312.44;5008338;28;20937;-78
2024/02/23 11:13:19;;;;;;;1.93;0.70;;;;;;;8.05;75.04;96308.97;5002829;28;20310;-79
2024/02/23 11:15:46;;;;;;;2.63;0.70;;;;;;;8.13;71.72;96278.41;5009082;28;20247;-78
2024/02/23 11:18:30;;;;;;;3.57;1.00;;;;;;;8.25;72.31;96282.59;5010978;28;20234;-78
2024/02/23 11:20:57;;;;;;;0.87;0.80;;;;;;;8.34;73.72;96296.75;5011328;28;20196;-78
2024/02/23 11:23:25;;;;;;;3.43;0.70;;;;;;;8.35;71.87;96277.34;5012082;28;20238;-78
2024/02/23 11:26:06;;;;;;;3.77;0.70;;;;;;;8.35;72.30;96286.09;5009854;28;20256;-78
2024/02/23 11:28:32;;;;;;;3.13;0.97;;;;;;;8.40;73.04;96290.94;5009197;28;20505;-78
2024/02/23 11:31:02;;;;;;;3.17;1.20;;;;;;;8.52;72.85;96297.75;5011880;28;20542;-78
2024/02/23 11:33:30;;;;;;;2.43;0.90;;;;;;;8.58;71.92;96284.03;5014767;28;20332;-77
2024/02/23 11:36:06;;;;;;;5.40;1.00;;;;;;;8.67;70.71;96270.00;5014384;28;20576;-78